Prestonwood, Texas
Current Conditions -  °F | °C
As of 4:35 AM on Saturday 20 Dec 2014 (Local Time) from KADS Reporting Station
Overcast Overcast  
Wind Chill: 42°   Ceiling: 600
Heat Index: 46°   Visibility: 7mi
Dew Point: 46°   Wind: 6mph
Humidity: 100%   Direction: 360°N
Pressure: 30.23"   Gusts: NA
Location:  32.9988°N, 96.7873°W
Report Text: KADS 201035Z AUTO 36005KT 7SM OVC006 08/08 A3023 RMK AO2 T00750075
Loading
Personal Weather Stations






























Interactive Weather Map New forecast layout! Learn more

10-Day Weather Forecast

Advertisements
Track Severe Weather on mobile